sensor_id;sensor_type;location;lat;lon;timestamp;P1;durP1;ratioP1;P2;durP2;ratioP2
1446;SDS011;717;51.522;7.266;2022-09-24T00:01:42;6.20;;;4.60;;
1446;SDS011;717;51.522;7.266;2022-09-24T00:04:10;9.73;;;4.75;;
1446;SDS011;717;51.522;7.266;2022-09-24T00:06:39;8.60;;;4.85;;
1446;SDS011;717;51.522;7.266;2022-09-24T00:09:08;7.63;;;5.00;;
1446;SDS011;717;51.522;7.266;2022-09-24T00:11:35;6.75;;;4.35;;
1446;SDS011;717;51.522;7.266;2022-09-24T00:14:03;6.80;;;4.93;;
1446;SDS011;717;51.522;7.266;2022-09-24T00:16:31;7.68;;;4.82;;
1446;SDS011;717;51.522;7.266;2022-09-24T00:18:59;9.43;;;5.50;;
1446;SDS011;717;51.522;7.266;2022-09-24T00:21:28;7.03;;;5.30;;
1446;SDS011;717;51.522;7.266;2022-09-24T00:23:57;7.40;;;5.70;;
1446;SDS011;717;51.522;7.266;2022-09-24T00:26:25;8.52;;;6.65;;
1446;SDS011;717;51.522;7.266;2022-09-24T00:29:10;8.85;;;6.05;;
1446;SDS011;717;51.522;7.266;2022-09-24T00:31:39;10.23;;;6.60;;
1446;SDS011;717;51.522;7.266;2022-09-24T00:34:07;9.73;;;6.40;;
1446;SDS011;717;51.522;7.266;2022-09-24T00:36:35;8.43;;;6.25;;
1446;SDS011;717;51.522;7.266;2022-09-24T00:39:03;8.88;;;6.20;;
1446;SDS011;717;51.522;7.266;2022-09-24T00:41:31;8.25;;;6.65;;
1446;SDS011;717;51.522;7.266;2022-09-24T00:44:01;10.30;;;6.40;;
1446;SDS011;717;51.522;7.266;2022-09-24T00:47:12;11.10;;;7.28;;
1446;SDS011;717;51.522;7.266;2022-09-24T00:49:41;10.30;;;7.50;;
1446;SDS011;717;51.522;7.266;2022-09-24T00:52:10;8.82;;;7.35;;
1446;SDS011;717;51.522;7.266;2022-09-24T00:54:37;10.57;;;7.18;;
1446;SDS011;717;51.522;7.266;2022-09-24T00:57:03;11.70;;;7.40;;
1446;SDS011;717;51.522;7.266;2022-09-24T00:59:30;10.18;;;7.88;;
1446;SDS011;717;51.522;7.266;2022-09-24T01:01:57;8.98;;;7.25;;
1446;SDS011;717;51.522;7.266;2022-09-24T01:04:25;11.07;;;7.40;;
1446;SDS011;717;51.522;7.266;2022-09-24T01:06:53;9.30;;;7.75;;
1446;SDS011;717;51.522;7.266;2022-09-24T01:09:23;9.70;;;7.47;;
1446;SDS011;717;51.522;7.266;2022-09-24T01:11:54;9.68;;;8.40;;
1446;SDS011;717;51.522;7.266;2022-09-24T01:14:31;11.23;;;8.20;;
1446;SDS011;717;51.522;7.266;2022-09-24T01:17:08;9.85;;;8.85;;
1446;SDS011;717;51.522;7.266;2022-09-24T01:19:51;10.43;;;8.43;;
1446;SDS011;717;51.522;7.266;2022-09-24T01:22:36;10.60;;;9.50;;
1446;SDS011;717;51.522;7.266;2022-09-24T01:25:16;11.35;;;10.23;;
1446;SDS011;717;51.522;7.266;2022-09-24T01:27:58;11.98;;;10.77;;
1446;SDS011;717;51.522;7.266;2022-09-24T01:30:38;14.93;;;11.93;;
1446;SDS011;717;51.522;7.266;2022-09-24T01:33:08;13.50;;;12.10;;
1446;SDS011;717;51.522;7.266;2022-09-24T01:35:42;13.65;;;12.07;;
1446;SDS011;717;51.522;7.266;2022-09-24T01:38:11;16.60;;;13.02;;
1446;SDS011;717;51.522;7.266;2022-09-24T01:40:41;14.35;;;12.98;;
1446;SDS011;717;51.522;7.266;2022-09-24T01:43:09;14.65;;;12.25;;
1446;SDS011;717;51.522;7.266;2022-09-24T01:45:39;14.95;;;13.13;;
1446;SDS011;717;51.522;7.266;2022-09-24T01:48:07;13.75;;;12.35;;
1446;SDS011;717;51.522;7.266;2022-09-24T01:50:37;15.70;;;13.63;;
1446;SDS011;717;51.522;7.266;2022-09-24T01:53:07;14.48;;;12.98;;
1446;SDS011;717;51.522;7.266;2022-09-24T01:55:41;14.35;;;12.98;;
1446;SDS011;717;51.522;7.266;2022-09-24T01:58:13;16.20;;;13.48;;
1446;SDS011;717;51.522;7.266;2022-09-24T02:00:46;14.15;;;12.65;;
1446;SDS011;717;51.522;7.266;2022-09-24T02:03:17;14.10;;;12.70;;
1446;SDS011;717;51.522;7.266;2022-09-24T02:05:48;15.10;;;13.60;;
1446;SDS011;717;51.522;7.266;2022-09-24T02:08:21;14.75;;;13.32;;
1446;SDS011;717;51.522;7.266;2022-09-24T02:10:50;14.63;;;12.80;;
1446;SDS011;717;51.522;7.266;2022-09-24T02:13:21;13.95;;;11.80;;
1446;SDS011;717;51.522;7.266;2022-09-24T02:15:54;13.18;;;11.80;;
1446;SDS011;717;51.522;7.266;2022-09-24T02:18:24;15.15;;;11.80;;
1446;SDS011;717;51.522;7.266;2022-09-24T02:20:56;13.15;;;11.68;;
1446;SDS011;717;51.522;7.266;2022-09-24T02:23:25;14.25;;;12.82;;
1446;SDS011;717;51.522;7.266;2022-09-24T02:25:55;13.32;;;11.98;;
1446;SDS011;717;51.522;7.266;2022-09-24T02:28:26;13.55;;;12.15;;
1446;SDS011;717;51.522;7.266;2022-09-24T02:30:54;15.45;;;12.52;;
1446;SDS011;717;51.522;7.266;2022-09-24T02:33:25;14.88;;;13.23;;
1446;SDS011;717;51.522;7.266;2022-09-24T02:36:12;16.52;;;12.70;;
1446;SDS011;717;51.522;7.266;2022-09-24T02:38:39;15.27;;;13.23;;
1446;SDS011;717;51.522;7.266;2022-09-24T02:41:07;15.63;;;12.80;;
1446;SDS011;717;51.522;7.266;2022-09-24T02:43:34;13.43;;;11.98;;
1446;SDS011;717;51.522;7.266;2022-09-24T02:46:03;15.30;;;13.32;;
1446;SDS011;717;51.522;7.266;2022-09-24T02:48:30;15.52;;;13.80;;
1446;SDS011;717;51.522;7.266;2022-09-24T02:50:56;14.70;;;13.20;;
1446;SDS011;717;51.522;7.266;2022-09-24T02:53:23;14.57;;;12.93;;
1446;SDS011;717;51.522;7.266;2022-09-24T02:55:50;15.23;;;13.63;;
1446;SDS011;717;51.522;7.266;2022-09-24T02:58:17;16.75;;;12.68;;
1446;SDS011;717;51.522;7.266;2022-09-24T03:00:44;14.55;;;12.95;;
1446;SDS011;717;51.522;7.266;2022-09-24T03:03:12;15.27;;;13.55;;
1446;SDS011;717;51.522;7.266;2022-09-24T03:05:39;15.48;;;13.02;;
1446;SDS011;717;51.522;7.266;2022-09-24T03:08:06;13.88;;;12.48;;
1446;SDS011;717;51.522;7.266;2022-09-24T03:10:33;14.38;;;12.93;;
1446;SDS011;717;51.522;7.266;2022-09-24T03:12:59;14.93;;;13.32;;
1446;SDS011;717;51.522;7.266;2022-09-24T03:15:26;15.25;;;13.65;;
1446;SDS011;717;51.522;7.266;2022-09-24T03:17:53;15.38;;;13.77;;
1446;SDS011;717;51.522;7.266;2022-09-24T03:20:21;15.60;;;12.82;;
1446;SDS011;717;51.522;7.266;2022-09-24T03:22:49;17.60;;;13.07;;
1446;SDS011;717;51.522;7.266;2022-09-24T03:25:16;16.90;;;13.82;;
1446;SDS011;717;51.522;7.266;2022-09-24T03:27:44;17.52;;;13.70;;
1446;SDS011;717;51.522;7.266;2022-09-24T03:30:12;14.68;;;13.20;;
1446;SDS011;717;51.522;7.266;2022-09-24T03:32:57;14.00;;;12.60;;
1446;SDS011;717;51.522;7.266;2022-09-24T03:35:25;14.77;;;12.85;;
1446;SDS011;717;51.522;7.266;2022-09-24T03:37:52;13.73;;;12.32;;
1446;SDS011;717;51.522;7.266;2022-09-24T03:40:19;13.75;;;12.13;;
1446;SDS011;717;51.522;7.266;2022-09-24T03:42:46;13.65;;;12.23;;
1446;SDS011;717;51.522;7.266;2022-09-24T03:45:13;13.80;;;11.85;;
1446;SDS011;717;51.522;7.266;2022-09-24T03:47:40;14.90;;;11.88;;
1446;SDS011;717;51.522;7.266;2022-09-24T03:50:07;13.52;;;11.90;;
1446;SDS011;717;51.522;7.266;2022-09-24T03:52:36;14.43;;;12.15;;
1446;SDS011;717;51.522;7.266;2022-09-24T03:55:03;13.95;;;11.95;;
1446;SDS011;717;51.522;7.266;2022-09-24T03:57:31;12.48;;;11.18;;
1446;SDS011;717;51.522;7.266;2022-09-24T03:59:58;14.30;;;12.27;;
1446;SDS011;717;51.522;7.266;2022-09-24T04:02:25;12.75;;;11.50;;
1446;SDS011;717;51.522;7.266;2022-09-24T04:04:51;13.20;;;11.38;;
1446;SDS011;717;51.522;7.266;2022-09-24T04:07:18;12.52;;;11.23;;
1446;SDS011;717;51.522;7.266;2022-09-24T04:09:46;14.13;;;11.10;;
1446;SDS011;717;51.522;7.266;2022-09-24T04:12:13;13.00;;;10.98;;
1446;SDS011;717;51.522;7.266;2022-09-24T04:14:40;13.73;;;11.57;;
1446;SDS011;717;51.522;7.266;2022-09-24T04:17:06;12.35;;;10.88;;
1446;SDS011;717;51.522;7.266;2022-09-24T04:19:35;12.90;;;11.05;;
1446;SDS011;717;51.522;7.266;2022-09-24T04:22:04;12.95;;;11.52;;
1446;SDS011;717;51.522;7.266;2022-09-24T04:24:30;13.75;;;12.05;;
1446;SDS011;717;51.522;7.266;2022-09-24T04:26:58;12.27;;;11.05;;
1446;SDS011;717;51.522;7.266;2022-09-24T04:29:25;12.32;;;11.02;;
1446;SDS011;717;51.522;7.266;2022-09-24T04:31:52;14.07;;;11.75;;
1446;SDS011;717;51.522;7.266;2022-09-24T04:34:18;13.50;;;11.57;;
1446;SDS011;717;51.522;7.266;2022-09-24T04:36:45;13.70;;;11.25;;
1446;SDS011;717;51.522;7.266;2022-09-24T04:39:12;13.10;;;11.50;;
1446;SDS011;717;51.522;7.266;2022-09-24T04:41:39;12.43;;;11.05;;
1446;SDS011;717;51.522;7.266;2022-09-24T04:44:07;12.98;;;11.57;;
1446;SDS011;717;51.522;7.266;2022-09-24T04:46:35;16.63;;;12.43;;
1446;SDS011;717;51.522;7.266;2022-09-24T04:49:01;13.57;;;11.93;;
1446;SDS011;717;51.522;7.266;2022-09-24T04:51:28;15.35;;;11.38;;
1446;SDS011;717;51.522;7.266;2022-09-24T04:53:59;13.93;;;12.10;;
1446;SDS011;717;51.522;7.266;2022-09-24T04:56:27;13.02;;;11.60;;
1446;SDS011;717;51.522;7.266;2022-09-24T04:58:54;14.02;;;12.02;;
1446;SDS011;717;51.522;7.266;2022-09-24T05:01:23;14.00;;;11.60;;
1446;SDS011;717;51.522;7.266;2022-09-24T05:03:50;12.93;;;11.43;;
1446;SDS011;717;51.522;7.266;2022-09-24T05:06:17;13.10;;;11.70;;
1446;SDS011;717;51.522;7.266;2022-09-24T05:08:44;13.50;;;12.05;;
1446;SDS011;717;51.522;7.266;2022-09-24T05:11:11;11.73;;;10.57;;
1446;SDS011;717;51.522;7.266;2022-09-24T05:13:38;12.98;;;11.57;;
1446;SDS011;717;51.522;7.266;2022-09-24T05:16:04;13.00;;;11.63;;
1446;SDS011;717;51.522;7.266;2022-09-24T05:18:33;16.85;;;11.32;;
1446;SDS011;717;51.522;7.266;2022-09-24T05:21:00;15.02;;;10.48;;
1446;SDS011;717;51.522;7.266;2022-09-24T05:23:26;13.30;;;10.95;;
1446;SDS011;717;51.522;7.266;2022-09-24T05:25:53;12.45;;;10.88;;
1446;SDS011;717;51.522;7.266;2022-09-24T05:28:37;12.10;;;10.73;;
1446;SDS011;717;51.522;7.266;2022-09-24T05:31:06;13.93;;;11.07;;
1446;SDS011;717;51.522;7.266;2022-09-24T05:33:36;14.20;;;10.90;;
1446;SDS011;717;51.522;7.266;2022-09-24T05:36:02;12.52;;;10.88;;
1446;SDS011;717;51.522;7.266;2022-09-24T05:38:29;11.55;;;10.40;;
1446;SDS011;717;51.522;7.266;2022-09-24T05:40:57;12.82;;;10.32;;
1446;SDS011;717;51.522;7.266;2022-09-24T05:43:23;13.30;;;10.43;;
1446;SDS011;717;51.522;7.266;2022-09-24T05:45:51;12.15;;;10.63;;
1446;SDS011;717;51.522;7.266;2022-09-24T05:48:18;11.77;;;9.85;;
1446;SDS011;717;51.522;7.266;2022-09-24T05:50:47;11.48;;;9.65;;
1446;SDS011;717;51.522;7.266;2022-09-24T05:53:17;10.68;;;9.57;;
1446;SDS011;717;51.522;7.266;2022-09-24T05:55:44;10.70;;;9.65;;
1446;SDS011;717;51.522;7.266;2022-09-24T05:58:12;11.32;;;9.70;;
1446;SDS011;717;51.522;7.266;2022-09-24T06:00:39;11.68;;;9.68;;
1446;SDS011;717;51.522;7.266;2022-09-24T06:03:07;13.55;;;10.05;;
1446;SDS011;717;51.522;7.266;2022-09-24T06:05:36;10.50;;;9.10;;
1446;SDS011;717;51.522;7.266;2022-09-24T06:08:04;11.07;;;9.45;;
1446;SDS011;717;51.522;7.266;2022-09-24T06:10:32;10.85;;;9.18;;
1446;SDS011;717;51.522;7.266;2022-09-24T06:13:00;11.93;;;9.50;;
1446;SDS011;717;51.522;7.266;2022-09-24T06:15:28;12.75;;;10.52;;
1446;SDS011;717;51.522;7.266;2022-09-24T06:17:55;10.85;;;9.70;;
1446;SDS011;717;51.522;7.266;2022-09-24T06:20:22;11.88;;;10.07;;
1446;SDS011;717;51.522;7.266;2022-09-24T06:22:49;11.63;;;10.10;;
1446;SDS011;717;51.522;7.266;2022-09-24T06:25:17;10.52;;;9.43;;
1446;SDS011;717;51.522;7.266;2022-09-24T06:27:43;12.73;;;10.48;;
1446;SDS011;717;51.522;7.266;2022-09-24T06:30:10;13.02;;;10.55;;
1446;SDS011;717;51.522;7.266;2022-09-24T06:32:38;11.38;;;9.48;;
1446;SDS011;717;51.522;7.266;2022-09-24T06:35:05;12.27;;;9.82;;
1446;SDS011;717;51.522;7.266;2022-09-24T06:37:32;11.05;;;9.90;;
1446;SDS011;717;51.522;7.266;2022-09-24T06:39:59;12.20;;;10.48;;
1446;SDS011;717;51.522;7.266;2022-09-24T06:42:27;11.57;;;10.15;;
1446;SDS011;717;51.522;7.266;2022-09-24T06:44:55;11.85;;;10.63;;
1446;SDS011;717;51.522;7.266;2022-09-24T06:47:21;14.05;;;11.43;;
1446;SDS011;717;51.522;7.266;2022-09-24T06:49:48;11.32;;;9.85;;
1446;SDS011;717;51.522;7.266;2022-09-24T06:52:15;12.43;;;9.88;;
1446;SDS011;717;51.522;7.266;2022-09-24T06:54:41;11.10;;;10.00;;
1446;SDS011;717;51.522;7.266;2022-09-24T06:57:08;12.10;;;10.10;;
1446;SDS011;717;51.522;7.266;2022-09-24T06:59:36;13.00;;;10.60;;
1446;SDS011;717;51.522;7.266;2022-09-24T07:02:03;11.88;;;9.95;;
1446;SDS011;717;51.522;7.266;2022-09-24T07:04:30;11.43;;;10.25;;
1446;SDS011;717;51.522;7.266;2022-09-24T07:06:56;14.70;;;9.20;;
1446;SDS011;717;51.522;7.266;2022-09-24T07:09:41;11.45;;;9.77;;
1446;SDS011;717;51.522;7.266;2022-09-24T07:12:08;11.48;;;10.02;;
1446;SDS011;717;51.522;7.266;2022-09-24T07:14:35;11.75;;;10.18;;
1446;SDS011;717;51.522;7.266;2022-09-24T07:17:03;12.52;;;9.82;;
1446;SDS011;717;51.522;7.266;2022-09-24T07:19:29;11.70;;;10.20;;
1446;SDS011;717;51.522;7.266;2022-09-24T07:21:56;10.95;;;9.70;;
1446;SDS011;717;51.522;7.266;2022-09-24T07:24:23;10.05;;;9.05;;
1446;SDS011;717;51.522;7.266;2022-09-24T07:26:50;11.40;;;10.27;;
1446;SDS011;717;51.522;7.266;2022-09-24T07:29:17;11.32;;;9.45;;
1446;SDS011;717;51.522;7.266;2022-09-24T07:31:45;13.75;;;10.18;;
1446;SDS011;717;51.522;7.266;2022-09-24T07:34:12;11.52;;;10.32;;
1446;SDS011;717;51.522;7.266;2022-09-24T07:36:39;12.50;;;10.02;;
1446;SDS011;717;51.522;7.266;2022-09-24T07:39:06;11.23;;;9.70;;
1446;SDS011;717;51.522;7.266;2022-09-24T07:41:32;10.52;;;9.52;;
1446;SDS011;717;51.522;7.266;2022-09-24T07:43:59;10.57;;;9.57;;
1446;SDS011;717;51.522;7.266;2022-09-24T07:46:26;13.20;;;10.07;;
1446;SDS011;717;51.522;7.266;2022-09-24T07:48:55;10.55;;;9.55;;
1446;SDS011;717;51.522;7.266;2022-09-24T07:51:22;11.13;;;9.98;;
1446;SDS011;717;51.522;7.266;2022-09-24T07:53:51;12.52;;;9.90;;
1446;SDS011;717;51.522;7.266;2022-09-24T07:56:18;12.65;;;9.82;;
1446;SDS011;717;51.522;7.266;2022-09-24T07:58:46;11.68;;;9.48;;
1446;SDS011;717;51.522;7.266;2022-09-24T08:01:14;12.40;;;10.00;;
1446;SDS011;717;51.522;7.266;2022-09-24T08:03:41;11.10;;;9.60;;
1446;SDS011;717;51.522;7.266;2022-09-24T08:06:10;11.35;;;9.77;;
1446;SDS011;717;51.522;7.266;2022-09-24T08:08:36;12.93;;;9.50;;
1446;SDS011;717;51.522;7.266;2022-09-24T08:11:04;14.75;;;10.82;;
1446;SDS011;717;51.522;7.266;2022-09-24T08:13:31;13.15;;;10.70;;
1446;SDS011;717;51.522;7.266;2022-09-24T08:15:59;11.95;;;10.32;;
1446;SDS011;717;51.522;7.266;2022-09-24T08:18:27;14.88;;;10.60;;
1446;SDS011;717;51.522;7.266;2022-09-24T08:20:55;11.95;;;10.25;;
1446;SDS011;717;51.522;7.266;2022-09-24T08:23:25;11.85;;;10.02;;
1446;SDS011;717;51.522;7.266;2022-09-24T08:25:52;11.27;;;9.55;;
1446;SDS011;717;51.522;7.266;2022-09-24T08:28:19;12.23;;;9.85;;
1446;SDS011;717;51.522;7.266;2022-09-24T08:30:46;12.85;;;9.95;;
1446;SDS011;717;51.522;7.266;2022-09-24T08:33:13;12.70;;;9.82;;
1446;SDS011;717;51.522;7.266;2022-09-24T08:35:40;11.95;;;9.88;;
1446;SDS011;717;51.522;7.266;2022-09-24T08:38:06;12.25;;;9.45;;
1446;SDS011;717;51.522;7.266;2022-09-24T08:40:36;12.63;;;9.75;;
1446;SDS011;717;51.522;7.266;2022-09-24T08:43:09;13.10;;;9.82;;
1446;SDS011;717;51.522;7.266;2022-09-24T08:45:48;12.18;;;9.55;;
1446;SDS011;717;51.522;7.266;2022-09-24T08:48:37;11.57;;;9.48;;
1446;SDS011;717;51.522;7.266;2022-09-24T08:51:10;10.05;;;8.43;;
1446;SDS011;717;51.522;7.266;2022-09-24T08:53:43;10.98;;;9.73;;
1446;SDS011;717;51.522;7.266;2022-09-24T08:56:17;11.75;;;9.68;;
1446;SDS011;717;51.522;7.266;2022-09-24T08:58:49;13.68;;;10.00;;
1446;SDS011;717;51.522;7.266;2022-09-24T09:01:23;12.68;;;9.73;;
1446;SDS011;717;51.522;7.266;2022-09-24T09:04:01;11.50;;;9.32;;
1446;SDS011;717;51.522;7.266;2022-09-24T09:06:40;13.27;;;10.18;;
1446;SDS011;717;51.522;7.266;2022-09-24T09:09:19;10.80;;;9.70;;
1446;SDS011;717;51.522;7.266;2022-09-24T09:11:50;12.32;;;9.88;;
1446;SDS011;717;51.522;7.266;2022-09-24T09:14:22;11.85;;;10.63;;
1446;SDS011;717;51.522;7.266;2022-09-24T09:16:59;15.70;;;10.70;;
1446;SDS011;717;51.522;7.266;2022-09-24T09:19:29;11.88;;;9.75;;
1446;SDS011;717;51.522;7.266;2022-09-24T09:21:59;14.38;;;11.52;;
1446;SDS011;717;51.522;7.266;2022-09-24T09:24:34;12.73;;;10.93;;
1446;SDS011;717;51.522;7.266;2022-09-24T09:27:09;12.57;;;10.45;;
1446;SDS011;717;51.522;7.266;2022-09-24T09:29:38;12.02;;;9.90;;
1446;SDS011;717;51.522;7.266;2022-09-24T09:32:07;12.55;;;9.63;;
1446;SDS011;717;51.522;7.266;2022-09-24T09:34:43;9.98;;;8.93;;
1446;SDS011;717;51.522;7.266;2022-09-24T09:37:19;10.70;;;9.60;;
1446;SDS011;717;51.522;7.266;2022-09-24T09:39:54;10.43;;;9.32;;
1446;SDS011;717;51.522;7.266;2022-09-24T09:42:30;12.43;;;9.38;;
1446;SDS011;717;51.522;7.266;2022-09-24T09:45:00;11.27;;;8.82;;
1446;SDS011;717;51.522;7.266;2022-09-24T09:47:33;11.02;;;8.48;;
1446;SDS011;717;51.522;7.266;2022-09-24T09:50:07;8.98;;;8.07;;
1446;SDS011;717;51.522;7.266;2022-09-24T09:52:42;9.10;;;8.15;;
1446;SDS011;717;51.522;7.266;2022-09-24T09:55:18;12.43;;;8.80;;
1446;SDS011;717;51.522;7.266;2022-09-24T09:57:48;10.25;;;7.10;;
1446;SDS011;717;51.522;7.266;2022-09-24T10:00:26;8.48;;;6.90;;
1446;SDS011;717;51.522;7.266;2022-09-24T10:02:58;8.48;;;7.40;;
1446;SDS011;717;51.522;7.266;2022-09-24T10:05:25;8.65;;;6.97;;
1446;SDS011;717;51.522;7.266;2022-09-24T10:07:53;8.48;;;7.10;;
1446;SDS011;717;51.522;7.266;2022-09-24T10:10:22;7.07;;;6.35;;
1446;SDS011;717;51.522;7.266;2022-09-24T10:12:52;9.43;;;6.40;;
1446;SDS011;717;51.522;7.266;2022-09-24T10:15:20;9.45;;;7.35;;
1446;SDS011;717;51.522;7.266;2022-09-24T10:17:49;9.07;;;7.88;;
1446;SDS011;717;51.522;7.266;2022-09-24T10:20:20;10.13;;;7.90;;
1446;SDS011;717;51.522;7.266;2022-09-24T10:22:50;8.88;;;7.88;;
1446;SDS011;717;51.522;7.266;2022-09-24T10:25:19;8.82;;;7.72;;
1446;SDS011;717;51.522;7.266;2022-09-24T10:27:51;10.63;;;7.93;;
1446;SDS011;717;51.522;7.266;2022-09-24T10:30:46;9.55;;;7.22;;
1446;SDS011;717;51.522;7.266;2022-09-24T10:33:15;8.68;;;7.78;;
1446;SDS011;717;51.522;7.266;2022-09-24T10:35:43;9.35;;;7.80;;
1446;SDS011;717;51.522;7.266;2022-09-24T10:38:14;10.40;;;8.40;;
1446;SDS011;717;51.522;7.266;2022-09-24T10:40:43;9.40;;;8.40;;
1446;SDS011;717;51.522;7.266;2022-09-24T10:43:15;9.00;;;8.10;;
1446;SDS011;717;51.522;7.266;2022-09-24T10:46:00;9.05;;;7.68;;
1446;SDS011;717;51.522;7.266;2022-09-24T10:48:47;10.43;;;8.63;;
1446;SDS011;717;51.522;7.266;2022-09-24T10:51:25;9.43;;;8.25;;
1446;SDS011;717;51.522;7.266;2022-09-24T10:54:05;10.07;;;8.77;;
1446;SDS011;717;51.522;7.266;2022-09-24T10:56:45;10.93;;;8.15;;
1446;SDS011;717;51.522;7.266;2022-09-24T11:02:07;9.43;;;7.38;;
1446;SDS011;717;51.522;7.266;2022-09-24T11:04:57;8.30;;;7.45;;
1446;SDS011;717;51.522;7.266;2022-09-24T11:10:22;8.20;;;7.38;;
1446;SDS011;717;51.522;7.266;2022-09-24T11:13:01;7.63;;;6.07;;
1446;SDS011;717;51.522;7.266;2022-09-24T11:15:43;8.80;;;7.63;;
1446;SDS011;717;51.522;7.266;2022-09-24T11:18:32;7.38;;;6.60;;
1446;SDS011;717;51.522;7.266;2022-09-24T11:21:12;7.85;;;6.47;;
1446;SDS011;717;51.522;7.266;2022-09-24T11:23:54;7.97;;;7.10;;
1446;SDS011;717;51.522;7.266;2022-09-24T11:26:43;7.78;;;6.70;;
1446;SDS011;717;51.522;7.266;2022-09-24T11:29:24;7.43;;;6.72;;
1446;SDS011;717;51.522;7.266;2022-09-24T11:32:04;9.40;;;6.32;;
1446;SDS011;717;51.522;7.266;2022-09-24T11:34:42;7.88;;;6.95;;
1446;SDS011;717;51.522;7.266;2022-09-24T11:37:24;7.75;;;6.88;;
1446;SDS011;717;51.522;7.266;2022-09-24T11:40:07;7.40;;;6.70;;
1446;SDS011;717;51.522;7.266;2022-09-24T11:42:50;8.05;;;6.82;;
1446;SDS011;717;51.522;7.266;2022-09-24T11:45:29;7.10;;;6.40;;
1446;SDS011;717;51.522;7.266;2022-09-24T11:48:24;7.72;;;6.93;;
1446;SDS011;717;51.522;7.266;2022-09-24T11:51:21;7.45;;;6.75;;
1446;SDS011;717;51.522;7.266;2022-09-24T11:53:56;8.35;;;7.18;;
1446;SDS011;717;51.522;7.266;2022-09-24T11:56:29;8.00;;;7.20;;
1446;SDS011;717;51.522;7.266;2022-09-24T11:59:09;8.55;;;7.68;;
1446;SDS011;717;51.522;7.266;2022-09-24T12:01:49;9.50;;;8.40;;
1446;SDS011;717;51.522;7.266;2022-09-24T12:04:20;8.57;;;7.50;;
1446;SDS011;717;51.522;7.266;2022-09-24T12:06:57;9.70;;;8.18;;
1446;SDS011;717;51.522;7.266;2022-09-24T12:09:34;8.32;;;7.28;;
1446;SDS011;717;51.522;7.266;2022-09-24T12:12:07;9.27;;;8.30;;
1446;SDS011;717;51.522;7.266;2022-09-24T12:14:48;9.18;;;8.15;;
1446;SDS011;717;51.522;7.266;2022-09-24T12:17:22;10.25;;;8.48;;
1446;SDS011;717;51.522;7.266;2022-09-24T12:20:00;10.02;;;8.63;;
1446;SDS011;717;51.522;7.266;2022-09-24T12:22:38;9.18;;;8.32;;
1446;SDS011;717;51.522;7.266;2022-09-24T12:25:10;9.13;;;8.13;;
1446;SDS011;717;51.522;7.266;2022-09-24T12:27:38;9.77;;;8.77;;
1446;SDS011;717;51.522;7.266;2022-09-24T12:30:13;10.95;;;9.82;;
1446;SDS011;717;51.522;7.266;2022-09-24T12:33:12;9.57;;;8.48;;
1446;SDS011;717;51.522;7.266;2022-09-24T12:35:56;9.40;;;8.50;;
1446;SDS011;717;51.522;7.266;2022-09-24T12:38:33;9.15;;;8.30;;
1446;SDS011;717;51.522;7.266;2022-09-24T12:41:15;9.75;;;8.75;;
1446;SDS011;717;51.522;7.266;2022-09-24T12:43:52;9.88;;;8.90;;
1446;SDS011;717;51.522;7.266;2022-09-24T12:46:26;9.80;;;8.80;;
1446;SDS011;717;51.522;7.266;2022-09-24T12:48:58;9.77;;;8.88;;
1446;SDS011;717;51.522;7.266;2022-09-24T12:51:32;10.38;;;9.38;;
1446;SDS011;717;51.522;7.266;2022-09-24T12:54:07;11.50;;;10.30;;
1446;SDS011;717;51.522;7.266;2022-09-24T12:56:45;10.45;;;9.45;;
1446;SDS011;717;51.522;7.266;2022-09-24T12:59:22;11.55;;;10.45;;
1446;SDS011;717;51.522;7.266;2022-09-24T13:01:51;11.70;;;10.55;;
1446;SDS011;717;51.522;7.266;2022-09-24T13:04:25;11.77;;;10.60;;
1446;SDS011;717;51.522;7.266;2022-09-24T13:07:00;11.82;;;10.63;;
1446;SDS011;717;51.522;7.266;2022-09-24T13:09:33;11.02;;;10.00;;
1446;SDS011;717;51.522;7.266;2022-09-24T13:12:03;11.95;;;10.73;;
1446;SDS011;717;51.522;7.266;2022-09-24T13:14:46;11.40;;;10.30;;
1446;SDS011;717;51.522;7.266;2022-09-24T13:17:17;10.82;;;9.80;;
1446;SDS011;717;51.522;7.266;2022-09-24T13:19:44;10.40;;;9.43;;
1446;SDS011;717;51.522;7.266;2022-09-24T13:22:25;10.75;;;9.63;;
1446;SDS011;717;51.522;7.266;2022-09-24T13:25:20;9.75;;;8.82;;
1446;SDS011;717;51.522;7.266;2022-09-24T13:28:00;11.10;;;10.00;;
1446;SDS011;717;51.522;7.266;2022-09-24T13:30:31;10.93;;;9.85;;
1446;SDS011;717;51.522;7.266;2022-09-24T13:33:03;10.40;;;8.90;;
1446;SDS011;717;51.522;7.266;2022-09-24T13:35:43;8.95;;;8.15;;
1446;SDS011;717;51.522;7.266;2022-09-24T13:38:17;10.43;;;8.65;;
1446;SDS011;717;51.522;7.266;2022-09-24T13:40:53;10.10;;;8.90;;
1446;SDS011;717;51.522;7.266;2022-09-24T13:43:31;9.32;;;8.43;;
1446;SDS011;717;51.522;7.266;2022-09-24T13:46:04;9.77;;;8.52;;
1446;SDS011;717;51.522;7.266;2022-09-24T13:48:34;10.48;;;9.48;;
1446;SDS011;717;51.522;7.266;2022-09-24T13:51:03;10.00;;;9.00;;
1446;SDS011;717;51.522;7.266;2022-09-24T13:53:37;18.73;;;14.57;;
1446;SDS011;717;51.522;7.266;2022-09-24T13:56:12;11.45;;;10.25;;
1446;SDS011;717;51.522;7.266;2022-09-24T13:58:40;10.45;;;9.43;;
1446;SDS011;717;51.522;7.266;2022-09-24T14:01:10;41.15;;;30.65;;
1446;SDS011;717;51.522;7.266;2022-09-24T14:03:40;44.35;;;33.50;;
1446;SDS011;717;51.522;7.266;2022-09-24T14:06:16;24.98;;;20.60;;
1446;SDS011;717;51.522;7.266;2022-09-24T14:08:47;23.10;;;20.25;;
1446;SDS011;717;51.522;7.266;2022-09-24T14:11:21;12.02;;;10.90;;
1446;SDS011;717;51.522;7.266;2022-09-24T14:13:51;11.32;;;10.23;;
1446;SDS011;717;51.522;7.266;2022-09-24T14:16:20;11.35;;;10.25;;
1446;SDS011;717;51.522;7.266;2022-09-24T14:18:58;11.98;;;10.77;;
1446;SDS011;717;51.522;7.266;2022-09-24T14:21:28;12.75;;;11.38;;
1446;SDS011;717;51.522;7.266;2022-09-24T14:24:00;15.23;;;13.73;;
1446;SDS011;717;51.522;7.266;2022-09-24T14:26:32;12.90;;;11.60;;
1446;SDS011;717;51.522;7.266;2022-09-24T14:29:04;11.82;;;10.73;;
1446;SDS011;717;51.522;7.266;2022-09-24T14:31:43;12.45;;;11.35;;
1446;SDS011;717;51.522;7.266;2022-09-24T14:34:18;12.65;;;11.45;;
1446;SDS011;717;51.522;7.266;2022-09-24T14:36:51;13.90;;;12.60;;
1446;SDS011;717;51.522;7.266;2022-09-24T14:39:20;13.07;;;11.77;;
1446;SDS011;717;51.522;7.266;2022-09-24T14:42:06;13.30;;;12.00;;
1446;SDS011;717;51.522;7.266;2022-09-24T14:44:35;20.98;;;19.00;;
1446;SDS011;717;51.522;7.266;2022-09-24T14:47:19;19.25;;;17.45;;
1446;SDS011;717;51.522;7.266;2022-09-24T14:49:50;13.20;;;11.80;;
1446;SDS011;717;51.522;7.266;2022-09-24T14:52:25;13.85;;;12.55;;
1446;SDS011;717;51.522;7.266;2022-09-24T14:55:03;13.95;;;12.55;;
1446;SDS011;717;51.522;7.266;2022-09-24T14:57:42;13.93;;;12.52;;
1446;SDS011;717;51.522;7.266;2022-09-24T15:00:20;14.85;;;13.45;;
1446;SDS011;717;51.522;7.266;2022-09-24T15:02:50;15.63;;;14.13;;
1446;SDS011;717;51.522;7.266;2022-09-24T15:05:23;20.27;;;18.30;;
1446;SDS011;717;51.522;7.266;2022-09-24T15:07:52;14.98;;;13.48;;
1446;SDS011;717;51.522;7.266;2022-09-24T15:10:38;13.50;;;12.30;;
1446;SDS011;717;51.522;7.266;2022-09-24T15:13:14;13.10;;;11.90;;
1446;SDS011;717;51.522;7.266;2022-09-24T15:15:46;12.93;;;11.73;;
1446;SDS011;717;51.522;7.266;2022-09-24T15:18:15;14.65;;;13.20;;
1446;SDS011;717;51.522;7.266;2022-09-24T15:20:46;13.82;;;12.48;;
1446;SDS011;717;51.522;7.266;2022-09-24T15:23:13;14.18;;;12.70;;
1446;SDS011;717;51.522;7.266;2022-09-24T15:25:41;13.20;;;11.95;;
1446;SDS011;717;51.522;7.266;2022-09-24T15:28:11;12.15;;;10.95;;
1446;SDS011;717;51.522;7.266;2022-09-24T15:30:41;12.02;;;10.85;;
1446;SDS011;717;51.522;7.266;2022-09-24T15:33:09;11.98;;;10.75;;
1446;SDS011;717;51.522;7.266;2022-09-24T15:35:37;12.32;;;11.02;;
1446;SDS011;717;51.522;7.266;2022-09-24T15:38:08;11.77;;;10.68;;
1446;SDS011;717;51.522;7.266;2022-09-24T15:40:43;11.70;;;10.60;;
1446;SDS011;717;51.522;7.266;2022-09-24T15:43:18;12.02;;;10.63;;